Time;durP1;ratioP1;P1;durP2;ratioP2;P2;SDS_P1;SDS_P2;PMS_P1;PMS_P2;Temp;Humidity;BMP_temperature;BMP_pressure;BME280_temperature;BME280_humidity;BME280_pressure;Samples;Min_cycle;Max_cycle;Signal;HPM_P1;HPM_P2
2021/04/22 00:01:11;;;;;;;23.43;4.60;;;8.60;74.70;;;;;;5071694;28;20202;-62
2021/04/22 00:03:37;;;;;;;10.53;3.50;;;8.60;75.00;;;;;;5071380;28;20174;-62
2021/04/22 00:06:02;;;;;;;16.40;3.97;;;8.50;75.10;;;;;;5071561;28;20174;-62
2021/04/22 00:08:28;;;;;;;22.53;3.60;;;8.50;76.00;;;;;;5071223;28;20215;-62
2021/04/22 00:10:56;;;;;;;9.03;3.40;;;8.50;75.30;;;;;;5071471;28;20531;-62
2021/04/22 00:13:25;;;;;;;15.13;3.70;;;8.50;75.60;;;;;;5070932;28;20181;-62
2021/04/22 00:15:52;;;;;;;11.27;3.40;;;8.50;75.80;;;;;;5071086;28;20464;-62
2021/04/22 00:18:18;;;;;;;12.87;3.67;;;8.50;76.20;;;;;;5071085;28;20942;-61
2021/04/22 00:20:44;;;;;;;12.60;4.20;;;8.40;75.90;;;;;;5071364;28;20428;-61
2021/04/22 00:23:12;;;;;;;13.60;4.60;;;8.40;76.20;;;;;;5070614;28;20444;-61
2021/04/22 00:25:38;;;;;;;24.40;5.33;;;8.40;76.30;;;;;;5069992;28;20186;-60
2021/04/22 00:28:05;;;;;;;28.30;5.73;;;8.40;76.10;;;;;;5078831;28;20819;-60
2021/04/22 00:30:31;;;;;;;19.00;6.17;;;8.40;76.10;;;;;;5085923;28;20441;-60
2021/04/22 00:32:57;;;;;;;12.43;6.90;;;8.40;76.00;;;;;;5083113;28;20447;-60
2021/04/22 00:35:23;;;;;;;11.37;5.53;;;8.40;76.00;;;;;;5069573;28;20954;-60
2021/04/22 00:37:48;;;;;;;10.40;6.03;;;8.40;76.30;;;;;;5072266;28;20186;-60
2021/04/22 00:40:17;;;;;;;14.70;5.47;;;8.40;76.60;;;;;;5075590;28;20170;-60
2021/04/22 00:42:43;;;;;;;17.43;5.53;;;8.40;76.60;;;;;;5075459;28;20554;-60
2021/04/22 00:45:09;;;;;;;13.20;4.60;;;8.30;76.50;;;;;;5075219;28;20523;-60
2021/04/22 00:47:36;;;;;;;14.47;4.10;;;8.30;76.40;;;;;;5074583;28;20512;-60
2021/04/22 00:50:04;;;;;;;15.50;5.03;;;8.20;76.80;;;;;;5074683;28;20519;-60
2021/04/22 00:52:30;;;;;;;20.13;6.00;;;8.20;77.50;;;;;;5075326;28;20434;-60
2021/04/22 00:54:56;;;;;;;21.63;5.60;;;8.10;78.00;;;;;;5075030;28;20448;-60
2021/04/22 00:57:21;;;;;;;10.53;4.17;;;8.00;78.30;;;;;;5074777;28;20266;-60
2021/04/22 00:59:47;;;;;;;16.43;5.23;;;7.90;78.60;;;;;;5075852;28;20174;-60
2021/04/22 01:02:16;;;;;;;10.67;5.43;;;7.90;78.90;;;;;;5075994;28;20315;-60
2021/04/22 01:04:50;;;;;;;13.67;3.93;;;7.80;79.00;;;;;;5075845;28;20177;-60
2021/04/22 01:07:16;;;;;;;11.77;4.37;;;7.80;79.50;;;;;;5076049;28;20557;-60
2021/04/22 01:09:42;;;;;;;12.43;4.30;;;7.80;79.90;;;;;;5075907;28;20416;-60
2021/04/22 01:12:11;;;;;;;10.70;3.53;;;7.70;80.50;;;;;;5075913;28;20435;-60
2021/04/22 01:14:37;;;;;;;18.07;4.80;;;7.70;81.20;;;;;;5075847;28;20420;-60
2021/04/22 01:17:03;;;;;;;20.13;3.57;;;7.60;81.20;;;;;;5075739;28;21070;-60
2021/04/22 01:19:29;;;;;;;15.40;5.57;;;7.60;81.00;;;;;;5075830;28;20424;-60
2021/04/22 01:21:54;;;;;;;21.07;4.43;;;7.60;82.30;;;;;;5075736;28;20684;-60
2021/04/22 01:24:20;;;;;;;17.70;4.97;;;7.60;82.80;;;;;;5075702;28;20553;-60
2021/04/22 01:26:46;;;;;;;13.03;3.67;;;7.50;83.20;;;;;;5075622;28;20454;-59
2021/04/22 01:29:13;;;;;;;17.37;5.03;;;7.50;84.30;;;;;;5075716;28;20416;-59
2021/04/22 01:31:39;;;;;;;19.70;6.07;;;7.50;84.00;;;;;;5075537;28;20425;-59
2021/04/22 01:34:09;;;;;;;12.67;4.50;;;7.50;84.40;;;;;;5075538;28;20431;-59
2021/04/22 01:36:37;;;;;;;17.73;4.73;;;7.50;85.20;;;;;;5075724;28;20271;-59
2021/04/22 01:39:06;;;;;;;19.53;4.10;;;7.50;85.30;;;;;;5075466;28;20424;-59
2021/04/22 01:41:31;;;;;;;18.27;3.63;;;7.40;85.60;;;;;;5075517;28;20527;-59
2021/04/22 01:43:57;;;;;;;15.60;7.10;;;7.50;86.20;;;;;;5075364;28;20499;-59
2021/04/22 01:46:23;;;;;;;14.50;4.63;;;7.50;87.40;;;;;;5075204;28;20182;-59
2021/04/22 01:48:49;;;;;;;14.73;3.70;;;7.40;86.60;;;;;;5074879;28;20174;-59
2021/04/22 01:51:14;;;;;;;21.47;4.90;;;7.40;86.90;;;;;;5075222;28;20432;-58
2021/04/22 01:53:40;;;;;;;16.43;4.33;;;7.30;87.20;;;;;;5075155;28;20194;-59
2021/04/22 01:56:06;;;;;;;22.50;5.60;;;7.30;87.60;;;;;;5073757;28;20218;-59
2021/04/22 01:58:31;;;;;;;13.40;5.00;;;7.30;88.30;;;;;;5075217;28;20179;-60
2021/04/22 02:00:59;;;;;;;18.10;4.47;;;7.30;88.60;;;;;;5074953;28;20258;-60
2021/04/22 02:03:28;;;;;;;8.30;3.47;;;7.30;88.90;;;;;;5075052;28;20541;-60
2021/04/22 02:05:54;;;;;;;14.43;3.83;;;7.30;89.00;;;;;;5075012;28;20448;-60
2021/04/22 02:08:20;;;;;;;13.13;3.60;;;7.30;89.40;;;;;;5074884;28;20456;-60
2021/04/22 02:10:46;;;;;;;15.73;4.83;;;7.20;90.00;;;;;;5074825;28;20443;-60
2021/04/22 02:13:14;;;;;;;12.20;4.43;;;7.20;90.30;;;;;;5074929;28;20262;-60
2021/04/22 02:15:40;;;;;;;12.27;4.50;;;7.20;90.80;;;;;;5074505;28;20206;-60
2021/04/22 02:18:06;;;;;;;11.63;3.70;;;7.20;91.10;;;;;;5074720;28;20417;-59
2021/04/22 02:20:33;;;;;;;8.73;4.20;;;7.30;91.30;;;;;;5074638;28;20427;-59
2021/04/22 02:22:59;;;;;;;15.37;3.53;;;7.30;91.20;;;;;;5074719;28;20637;-59
2021/04/22 02:25:26;;;;;;;15.00;4.00;;;7.40;91.20;;;;;;5074698;28;20421;-59
2021/04/22 02:27:53;;;;;;;7.60;3.37;;;7.40;91.00;;;;;;5074519;28;20987;-59
2021/04/22 02:30:31;;;;;;;7.47;2.80;;;7.40;91.70;;;;;;5074591;28;20425;-59
2021/04/22 02:32:59;;;;;;;8.67;2.93;;;7.40;91.80;;;;;;5074407;28;20424;-60
2021/04/22 02:35:27;;;;;;;14.43;3.70;;;7.40;91.50;;;;;;5074273;28;20425;-60
2021/04/22 02:37:54;;;;;;;22.80;4.60;;;7.40;92.00;;;;;;5074299;28;20428;-60
2021/04/22 02:40:23;;;;;;;10.83;3.70;;;7.50;91.80;;;;;;5074214;28;20421;-59
2021/04/22 02:42:49;;;;;;;20.77;4.67;;;7.50;91.70;;;;;;5074153;28;20504;-60
2021/04/22 02:45:22;;;;;;;10.50;4.03;;;7.50;91.80;;;;;;5074231;28;20416;-60
2021/04/22 02:47:47;;;;;;;14.47;4.33;;;7.50;92.00;;;;;;5072777;28;20958;-60
2021/04/22 02:50:18;;;;;;;9.43;3.63;;;7.50;92.70;;;;;;5074183;28;20974;-60
2021/04/22 02:52:43;;;;;;;13.97;3.40;;;7.50;92.50;;;;;;5074029;28;20187;-60
2021/04/22 02:55:10;;;;;;;19.33;5.03;;;7.50;92.50;;;;;;5073781;28;20963;-60
2021/04/22 02:57:35;;;;;;;12.43;4.67;;;7.50;92.50;;;;;;5073848;28;20185;-60
2021/04/22 03:00:03;;;;;;;15.90;4.37;;;7.50;92.40;;;;;;5073484;28;20783;-59
2021/04/22 03:02:29;;;;;;;18.97;5.07;;;7.50;92.40;;;;;;5073527;28;20581;-59
2021/04/22 03:04:54;;;;;;;12.17;4.03;;;7.50;92.30;;;;;;5073728;28;20432;-59
2021/04/22 03:07:20;;;;;;;25.47;5.03;;;7.60;92.50;;;;;;5073797;28;20177;-60
2021/04/22 03:09:45;;;;;;;13.60;4.23;;;7.60;92.30;;;;;;5073665;28;20177;-59
2021/04/22 03:12:11;;;;;;;10.80;3.87;;;7.60;92.30;;;;;;5073657;28;20177;-60
2021/04/22 03:14:37;;;;;;;15.10;3.53;;;7.60;92.40;;;;;;5073487;28;20174;-59
2021/04/22 03:17:03;;;;;;;16.77;5.23;;;7.60;92.30;;;;;;5073580;28;20244;-59
2021/04/22 03:19:28;;;;;;;17.33;4.63;;;7.60;92.30;;;;;;5073398;28;20174;-60
2021/04/22 03:21:54;;;;;;;7.60;3.00;;;7.60;92.30;;;;;;5073382;28;20532;-60
2021/04/22 03:24:20;;;;;;;12.50;4.57;;;7.60;92.30;;;;;;5073524;28;20288;-60
2021/04/22 03:26:46;;;;;;;9.27;3.87;;;7.60;92.60;;;;;;5073362;28;20174;-60
2021/04/22 03:29:11;;;;;;;17.50;4.50;;;7.60;92.70;;;;;;5073418;28;20614;-59
2021/04/22 03:31:37;;;;;;;18.47;3.70;;;7.60;92.60;;;;;;5073337;28;20443;-60
2021/04/22 03:34:03;;;;;;;16.97;3.70;;;7.60;92.70;;;;;;5073255;28;20202;-60
2021/04/22 03:36:28;;;;;;;18.47;5.87;;;7.60;92.80;;;;;;5073201;28;20591;-60
2021/04/22 03:38:54;;;;;;;17.27;4.70;;;7.60;92.80;;;;;;5073194;28;20174;-60
2021/04/22 03:41:21;;;;;;;14.10;5.13;;;7.50;93.10;;;;;;5073305;28;20182;-60
2021/04/22 03:43:46;;;;;;;29.40;5.20;;;7.60;93.10;;;;;;5073192;28;20189;-60
2021/04/22 03:46:12;;;;;;;12.40;4.47;;;7.50;93.00;;;;;;5073239;28;20427;-60
2021/04/22 03:48:38;;;;;;;16.47;5.70;;;7.50;92.90;;;;;;5073085;28;20178;-60
2021/04/22 03:51:03;;;;;;;21.63;5.90;;;7.50;93.10;;;;;;5073093;28;20248;-60
2021/04/22 03:53:29;;;;;;;10.80;4.87;;;7.50;93.30;;;;;;5073168;28;20186;-60
2021/04/22 03:55:54;;;;;;;14.77;4.90;;;7.40;93.20;;;;;;5072736;28;20570;-60
2021/04/22 03:58:20;;;;;;;18.97;4.20;;;7.40;93.10;;;;;;5073044;28;20189;-59
2021/04/22 04:00:46;;;;;;;16.90;5.30;;;7.40;93.00;;;;;;5072973;28;20231;-60
2021/04/22 04:03:11;;;;;;;10.13;4.03;;;7.40;93.00;;;;;;5073012;28;20178;-60
2021/04/22 04:05:37;;;;;;;18.10;4.80;;;7.40;93.00;;;;;;5072902;28;20273;-60
2021/04/22 05:32:41;;;;;;;15.30;5.37;;;7.60;94.60;;;;;;4936369;29;21096;-59
2021/04/22 05:35:07;;;;;;;16.47;6.63;;;7.70;94.00;;;;;;4938394;29;20439;-59
2021/04/22 05:37:33;;;;;;;17.00;6.37;;;7.70;94.10;;;;;;4938138;29;20218;-59
2021/04/22 05:42:26;;;;;;;13.53;5.17;;;7.80;93.90;;;;;;4956017;29;20630;-60
2021/04/22 05:44:52;;;;;;;15.70;5.40;;;7.90;94.00;;;;;;4957202;29;20437;-60
2021/04/22 05:47:17;;;;;;;25.07;4.83;;;8.00;93.40;;;;;;4957232;29;20170;-60
2021/04/22 05:49:43;;;;;;;14.83;5.67;;;8.10;93.60;;;;;;4957185;29;20185;-60
2021/04/22 05:52:08;;;;;;;14.00;5.37;;;8.10;92.90;;;;;;4957243;29;20190;-60
2021/04/22 05:54:34;;;;;;;12.73;5.00;;;8.20;92.60;;;;;;4957088;29;20201;-60
2021/04/22 05:56:59;;;;;;;35.17;4.90;;;8.20;92.30;;;;;;4956984;29;20246;-60
2021/04/22 05:59:25;;;;;;;14.60;4.53;;;8.20;92.20;;;;;;4956991;29;20181;-60
2021/04/22 06:01:51;;;;;;;13.13;6.23;;;8.20;92.20;;;;;;4956948;29;20538;-60
2021/04/22 06:04:16;;;;;;;13.73;5.80;;;8.30;92.50;;;;;;4956861;29;20202;-60
2021/04/22 06:06:42;;;;;;;17.23;5.33;;;8.30;92.50;;;;;;4956848;29;20186;-60
2021/04/22 06:09:07;;;;;;;10.53;4.60;;;8.40;92.00;;;;;;4956790;29;20174;-60
2021/04/22 06:11:33;;;;;;;11.40;4.67;;;8.40;91.60;;;;;;4956556;29;20616;-60
2021/04/22 06:13:58;;;;;;;20.77;5.30;;;8.50;91.30;;;;;;4956732;29;20257;-60
2021/04/22 06:16:26;;;;;;;18.50;5.40;;;8.60;91.10;;;;;;4956717;29;20310;-60
2021/04/22 06:18:52;;;;;;;20.47;6.50;;;8.60;90.70;;;;;;4956673;29;20178;-60
2021/04/22 06:21:17;;;;;;;9.20;5.30;;;8.70;90.90;;;;;;4956746;29;20813;-60
2021/04/22 06:23:43;;;;;;;14.77;5.37;;;8.80;90.50;;;;;;4956531;29;20432;-60
2021/04/22 06:26:09;;;;;;;9.13;4.70;;;8.80;90.10;;;;;;4956668;29;20174;-60
2021/04/22 06:28:35;;;;;;;13.87;5.40;;;8.90;88.90;;;;;;4956361;29;20630;-60
2021/04/22 06:31:00;;;;;;;16.93;5.80;;;8.90;88.40;;;;;;4955240;29;20170;-60
2021/04/22 06:33:26;;;;;;;22.30;7.10;;;9.00;88.60;;;;;;4951272;29;20446;-60
2021/04/22 06:35:52;;;;;;;22.63;6.97;;;9.10;88.60;;;;;;4954617;28;20610;-61
2021/04/22 06:38:17;;;;;;;23.70;8.07;;;9.10;88.00;;;;;;4955736;29;20182;-59
2021/04/22 06:40:43;;;;;;;16.30;5.97;;;9.20;88.60;;;;;;4954287;29;20686;-61
2021/04/22 06:43:12;;;;;;;26.20;5.60;;;9.20;89.20;;;;;;4947953;29;20326;-60
2021/04/22 06:45:42;;;;;;;8.90;4.17;;;9.30;87.60;;;;;;4953297;28;20595;-59
2021/04/22 06:48:11;;;;;;;16.97;5.00;;;9.40;86.60;;;;;;4953017;29;20492;-64
2021/04/22 06:50:38;;;;;;;11.83;4.03;;;9.50;86.10;;;;;;4952207;29;20441;-60
2021/04/22 06:53:03;;;;;;;17.83;4.00;;;9.50;85.70;;;;;;4947405;29;20926;-67
2021/04/22 06:55:29;;;;;;;7.20;3.70;;;9.60;86.10;;;;;;4951031;29;20528;-60
2021/04/22 06:57:57;;;;;;;10.43;4.00;;;9.60;83.30;;;;;;4954381;29;20182;-60
2021/04/22 07:00:24;;;;;;;15.23;6.03;;;9.60;82.40;;;;;;4954272;29;20170;-60
2021/04/22 07:02:50;;;;;;;16.23;4.50;;;9.70;83.10;;;;;;4954245;29;21008;-60
2021/04/22 07:05:16;;;;;;;20.97;5.83;;;9.70;82.30;;;;;;4953776;29;20883;-61
2021/04/22 07:07:43;;;;;;;15.53;5.87;;;9.80;82.80;;;;;;4953349;28;20448;-60
2021/04/22 07:10:10;;;;;;;17.50;4.30;;;9.80;81.50;;;;;;4954060;29;20823;-61
2021/04/22 07:12:35;;;;;;;19.13;5.70;;;9.80;80.80;;;;;;4949481;29;20443;-60
2021/04/22 07:15:02;;;;;;;10.07;4.50;;;9.90;78.70;;;;;;4948770;29;20545;-60
2021/04/22 07:17:27;;;;;;;16.00;4.07;;;9.90;78.90;;;;;;4953030;29;20261;-60
2021/04/22 07:19:56;;;;;;;11.60;4.27;;;9.90;79.00;;;;;;4935566;29;20925;-60
2021/04/22 07:22:23;;;;;;;12.90;3.30;;;10.00;77.50;;;;;;4950892;29;20246;-61
2021/04/22 07:24:49;;;;;;;10.30;4.20;;;10.00;77.20;;;;;;4952732;29;20437;-61
2021/04/22 07:27:15;;;;;;;9.33;3.40;;;10.10;77.40;;;;;;4953003;29;20442;-61
2021/04/22 07:29:45;;;;;;;11.83;2.90;;;10.10;75.70;;;;;;4950314;29;20189;-60
2021/04/22 07:32:12;;;;;;;15.23;3.13;;;10.10;75.40;;;;;;4943947;29;20266;-61
2021/04/22 07:34:38;;;;;;;10.47;3.40;;;10.10;76.20;;;;;;4935994;29;20426;-61
2021/04/22 07:37:04;;;;;;;13.70;3.90;;;10.10;74.40;;;;;;4934831;29;20483;-61
2021/04/22 07:39:29;;;;;;;11.70;2.93;;;10.10;73.90;;;;;;4934729;29;20430;-61
2021/04/22 07:41:55;;;;;;;14.03;4.00;;;10.10;74.80;;;;;;4935212;29;20317;-61
2021/04/22 07:44:21;;;;;;;19.47;3.47;;;10.20;75.30;;;;;;4944759;29;20541;-61
2021/04/22 07:46:46;;;;;;;6.93;2.90;;;10.20;74.80;;;;;;4944187;28;20601;-61
2021/04/22 07:49:12;;;;;;;4.97;2.70;;;10.20;75.10;;;;;;4943044;29;20182;-61
2021/04/22 07:51:38;;;;;;;9.10;2.77;;;10.20;73.00;;;;;;4944799;29;20174;-61
2021/04/22 07:54:04;;;;;;;13.83;3.00;;;10.20;71.20;;;;;;4943940;29;20171;-61
2021/04/22 07:56:30;;;;;;;7.90;2.93;;;10.10;70.10;;;;;;4942903;29;20468;-61
2021/04/22 07:58:56;;;;;;;8.80;3.50;;;10.20;69.90;;;;;;4944954;29;20456;-61
2021/04/22 08:01:22;;;;;;;11.13;2.97;;;10.20;69.60;;;;;;4943674;29;21001;-61
2021/04/22 08:03:47;;;;;;;14.20;3.83;;;10.30;70.40;;;;;;4948332;29;20642;-62
2021/04/22 08:06:13;;;;;;;8.57;3.30;;;10.30;70.40;;;;;;4953701;29;20519;-61
2021/04/22 08:08:39;;;;;;;7.93;2.93;;;10.30;69.80;;;;;;4953633;29;20210;-61
2021/04/22 08:11:05;;;;;;;11.00;3.10;;;10.40;69.30;;;;;;4953857;29;20906;-61
2021/04/22 08:13:31;;;;;;;9.07;3.00;;;10.40;68.20;;;;;;4953718;29;20197;-60
2021/04/22 08:15:57;;;;;;;8.00;3.47;;;10.40;70.50;;;;;;4945804;29;21051;-74
2021/04/22 08:18:25;;;;;;;9.37;3.33;;;10.60;71.00;;;;;;4934561;29;20439;-66
2021/04/22 08:20:52;;;;;;;15.27;3.07;;;10.70;68.50;;;;;;4934433;29;20443;-65
2021/04/22 08:23:18;;;;;;;8.67;3.90;;;10.70;68.10;;;;;;4935957;29;20453;-65
2021/04/22 08:25:46;;;;;;;11.63;3.57;;;10.70;67.50;;;;;;4953589;29;20430;-65
2021/04/22 08:28:15;;;;;;;7.37;2.90;;;10.80;68.00;;;;;;4953274;29;20812;-65
2021/04/22 08:30:46;;;;;;;7.93;3.63;;;10.90;69.30;;;;;;4953607;29;20525;-64
2021/04/22 08:33:14;;;;;;;11.80;4.17;;;11.10;69.40;;;;;;4946534;29;20445;-65
2021/04/22 08:35:40;;;;;;;8.40;3.80;;;11.20;69.10;;;;;;4936133;29;20451;-67
2021/04/22 08:38:08;;;;;;;8.70;3.50;;;11.30;67.90;;;;;;4933943;29;20435;-66
2021/04/22 08:40:34;;;;;;;13.73;4.00;;;11.30;67.10;;;;;;4934397;29;20465;-66
2021/04/22 08:42:59;;;;;;;10.10;3.40;;;11.20;66.70;;;;;;4935260;29;20438;-66
2021/04/22 08:45:25;;;;;;;6.30;3.03;;;11.20;66.90;;;;;;4935154;29;20197;-65
2021/04/22 08:47:52;;;;;;;14.33;4.30;;;11.30;66.80;;;;;;4934954;29;20187;-64
2021/04/22 08:50:24;;;;;;;8.63;3.40;;;11.20;66.50;;;;;;4934903;29;20427;-64
2021/04/22 08:52:53;;;;;;;5.33;2.87;;;11.20;66.60;;;;;;4934956;29;20447;-64
2021/04/22 08:55:21;;;;;;;9.20;3.30;;;11.30;67.40;;;;;;4935241;29;20425;-64
2021/04/22 08:57:47;;;;;;;15.17;4.37;;;11.30;66.50;;;;;;4934727;29;20561;-64
2021/04/22 09:00:16;;;;;;;15.03;3.53;;;11.30;66.70;;;;;;4937926;29;20455;-64
2021/04/22 09:02:42;;;;;;;12.30;4.13;;;11.30;67.20;;;;;;4938336;29;20427;-64
2021/04/22 09:05:09;;;;;;;10.17;3.43;;;11.40;67.30;;;;;;4938722;29;20423;-64
2021/04/22 09:07:34;;;;;;;12.10;3.90;;;11.50;68.40;;;;;;4938181;29;20175;-66
2021/04/22 09:10:01;;;;;;;9.60;3.50;;;11.60;67.70;;;;;;4940415;29;20627;-65
2021/04/22 09:12:27;;;;;;;8.57;3.17;;;11.70;64.70;;;;;;4949157;29;20257;-65
2021/04/22 09:14:55;;;;;;;14.63;4.77;;;11.70;63.90;;;;;;4957394;29;20430;-65
2021/04/22 09:17:21;;;;;;;8.90;3.50;;;11.80;66.90;;;;;;4957232;29;20603;-66
2021/04/22 09:19:47;;;;;;;7.90;3.53;;;12.00;67.00;;;;;;4957284;29;20795;-65
2021/04/22 09:22:13;;;;;;;15.40;4.60;;;12.00;63.60;;;;;;4957561;29;20438;-65
2021/04/22 09:24:39;;;;;;;16.10;5.10;;;12.10;64.00;;;;;;4957371;29;20206;-63
2021/04/22 09:27:11;;;;;;;14.63;3.73;;;12.10;64.90;;;;;;4957424;29;20202;-62
2021/04/22 09:29:49;;;;;;;17.10;4.83;;;12.10;62.60;;;;;;4957288;29;20229;-62
2021/04/22 09:32:33;;;;;;;12.57;4.60;;;12.20;63.40;;;;;;4940761;29;20971;-63
2021/04/22 09:35:06;;;;;;;8.53;3.17;;;12.30;63.90;;;;;;4942943;29;20720;-63
2021/04/22 09:37:36;;;;;;;10.30;3.60;;;12.40;62.70;;;;;;4940628;28;20521;-62
2021/04/22 09:40:16;;;;;;;10.00;4.57;;;12.40;63.20;;;;;;4941735;29;20536;-62
2021/04/22 09:42:42;;;;;;;13.57;3.40;;;12.60;63.90;;;;;;4946512;28;20466;-62
2021/04/22 09:45:10;;;;;;;13.17;3.57;;;12.60;62.40;;;;;;4948406;29;20855;-63
2021/04/22 09:47:36;;;;;;;8.70;3.50;;;12.70;60.80;;;;;;4956795;29;20269;-61
2021/04/22 09:50:08;;;;;;;6.67;2.93;;;12.70;60.60;;;;;;4956902;29;20446;-62
2021/04/22 09:52:38;;;;;;;20.43;4.03;;;12.80;61.30;;;;;;4954589;29;20201;-64
2021/04/22 09:55:05;;;;;;;11.20;3.83;;;12.80;61.00;;;;;;4946841;29;20442;-63
2021/04/22 09:57:34;;;;;;;12.00;4.60;;;12.90;60.80;;;;;;4937355;29;20478;-62
2021/04/22 10:00:00;;;;;;;13.87;4.77;;;12.90;60.90;;;;;;4937629;29;20431;-62
2021/04/22 10:02:27;;;;;;;9.20;4.17;;;12.80;62.10;;;;;;4937635;29;20441;-62
2021/04/22 10:04:55;;;;;;;8.43;4.70;;;12.80;60.90;;;;;;4948769;29;20453;-62
2021/04/22 10:07:25;;;;;;;9.03;3.90;;;12.90;63.30;;;;;;4948200;29;20441;-62
2021/04/22 10:09:58;;;;;;;14.33;3.40;;;13.00;61.40;;;;;;4956200;28;21004;-62
2021/04/22 10:12:26;;;;;;;7.47;4.40;;;13.10;60.30;;;;;;4942563;28;20997;-62
2021/04/22 10:14:52;;;;;;;9.33;2.90;;;13.10;60.30;;;;;;4942569;29;20442;-62
2021/04/22 10:17:22;;;;;;;20.63;5.30;;;13.10;59.30;;;;;;4951747;29;20478;-63
2021/04/22 10:20:08;;;;;;;9.50;4.00;;;13.10;59.40;;;;;;4944370;29;20539;-63
2021/04/22 10:22:39;;;;;;;12.00;5.00;;;13.10;59.70;;;;;;4937023;29;20490;-63
2021/04/22 10:25:11;;;;;;;8.00;3.80;;;13.10;60.30;;;;;;4937014;29;20997;-62
2021/04/22 10:27:38;;;;;;;10.03;3.70;;;13.10;60.40;;;;;;4936680;29;20437;-62
2021/04/22 10:30:08;;;;;;;9.53;4.23;;;13.20;61.50;;;;;;4936925;29;20461;-62
2021/04/22 10:32:35;;;;;;;14.03;4.30;;;13.20;61.60;;;;;;4936893;29;20507;-63
2021/04/22 10:35:02;;;;;;;7.93;3.43;;;13.20;61.30;;;;;;4936941;29;20459;-62
2021/04/22 10:37:30;;;;;;;9.03;3.70;;;13.20;61.20;;;;;;4936616;29;20840;-62
2021/04/22 10:39:57;;;;;;;13.80;4.90;;;13.20;61.20;;;;;;4936770;29;20812;-62
2021/04/22 10:42:23;;;;;;;8.33;4.17;;;13.30;61.60;;;;;;4941122;29;20613;-62
2021/04/22 10:44:49;;;;;;;13.03;4.70;;;13.30;63.20;;;;;;4942086;29;20430;-63
2021/04/22 10:47:19;;;;;;;7.17;4.17;;;13.50;62.90;;;;;;4936689;29;20435;-62
2021/04/22 10:49:46;;;;;;;8.23;4.60;;;13.60;62.10;;;;;;4935925;28;20490;-62
2021/04/22 10:52:14;;;;;;;10.37;4.80;;;13.60;61.80;;;;;;4946012;28;20970;-62
2021/04/22 10:54:45;;;;;;;7.87;4.40;;;13.70;60.30;;;;;;4937130;28;20442;-62
2021/04/22 10:57:15;;;;;;;15.20;4.07;;;13.70;60.30;;;;;;4948418;28;20482;-62
2021/04/22 10:59:44;;;;;;;10.30;4.60;;;13.70;60.20;;;;;;4936672;29;20942;-62
2021/04/22 11:02:17;;;;;;;12.50;5.97;;;13.70;59.30;;;;;;4936475;29;20786;-62
2021/04/22 11:04:48;;;;;;;11.63;5.17;;;13.70;59.20;;;;;;4940238;29;20455;-62
2021/04/22 11:07:21;;;;;;;18.40;7.13;;;13.80;62.60;;;;;;4944514;29;20998;-62
2021/04/22 11:09:50;;;;;;;13.33;4.13;;;13.80;62.50;;;;;;4936057;29;20429;-62
2021/04/22 11:12:30;;;;;;;10.10;4.30;;;13.90;59.70;;;;;;4936292;29;20434;-62
2021/04/22 11:14:58;;;;;;;9.87;4.77;;;14.10;61.20;;;;;;4936097;29;20435;-62
2021/04/22 11:17:37;;;;;;;9.13;4.33;;;13.90;60.20;;;;;;4935982;29;20570;-62
2021/04/22 11:20:16;;;;;;;13.43;4.70;;;13.90;60.00;;;;;;4935761;29;20430;-62
2021/04/22 11:22:44;;;;;;;10.60;4.83;;;14.00;60.50;;;;;;4935443;29;20427;-62
2021/04/22 11:25:15;;;;;;;10.13;3.97;;;14.10;60.10;;;;;;4936183;29;20494;-62
2021/04/22 11:27:49;;;;;;;10.97;3.60;;;14.20;59.00;;;;;;4939667;28;20471;-62
2021/04/22 11:30:26;;;;;;;8.20;4.63;;;14.30;59.30;;;;;;4954854;28;20774;-62
2021/04/22 11:32:53;;;;;;;10.90;3.70;;;14.40;57.60;;;;;;4955101;29;20425;-62
2021/04/22 11:35:21;;;;;;;10.30;3.70;;;14.40;57.90;;;;;;4955126;29;20422;-62
2021/04/22 11:38:03;;;;;;;13.53;4.90;;;14.40;59.10;;;;;;4954731;29;20545;-62
2021/04/22 11:40:39;;;;;;;7.40;4.73;;;14.40;59.40;;;;;;4954926;29;20453;-63
2021/04/22 11:43:17;;;;;;;10.40;4.00;;;14.70;57.10;;;;;;4955171;29;20432;-63
2021/04/22 11:45:51;;;;;;;11.50;4.40;;;14.90;55.70;;;;;;4954917;29;20450;-63
2021/04/22 11:48:16;;;;;;;9.93;4.50;;;14.90;58.50;;;;;;4954814;29;20429;-63
2021/04/22 11:50:51;;;;;;;11.73;4.50;;;14.90;57.50;;;;;;4954845;29;20426;-63
2021/04/22 11:53:21;;;;;;;9.67;4.50;;;15.10;57.90;;;;;;4954783;29;20205;-62
2021/04/22 11:55:54;;;;;;;9.57;4.30;;;15.00;56.70;;;;;;4954435;29;20426;-63
2021/04/22 11:58:22;;;;;;;11.03;4.23;;;15.00;56.00;;;;;;4954355;29;20521;-62
2021/04/22 12:00:51;;;;;;;10.10;4.00;;;15.00;56.90;;;;;;4954058;29;20432;-62
2021/04/22 12:03:23;;;;;;;8.07;4.30;;;14.90;55.30;;;;;;4953636;29;20513;-62
2021/04/22 12:05:54;;;;;;;18.33;4.20;;;15.00;58.20;;;;;;4953512;29;20533;-62
2021/04/22 12:08:30;;;;;;;10.87;4.10;;;15.10;57.80;;;;;;4953580;29;20437;-62
2021/04/22 12:10:56;;;;;;;9.97;4.33;;;15.40;56.20;;;;;;4953346;29;20525;-62
2021/04/22 12:13:22;;;;;;;13.47;4.87;;;15.40;56.10;;;;;;4953762;29;20439;-62
2021/04/22 12:15:51;;;;;;;8.73;4.20;;;15.30;57.10;;;;;;4953392;29;20620;-62
2021/04/22 12:18:32;;;;;;;9.93;4.50;;;15.40;57.10;;;;;;4953648;29;20430;-62
2021/04/22 12:21:23;;;;;;;14.07;5.00;;;15.60;57.60;;;;;;4953758;29;20484;-63
2021/04/22 12:23:54;;;;;;;7.90;6.00;;;15.90;56.50;;;;;;4953390;29;20790;-63
2021/04/22 12:26:26;;;;;;;6.50;4.23;;;15.90;56.00;;;;;;4953722;29;20430;-63
2021/04/22 12:29:01;;;;;;;12.57;5.07;;;15.80;54.70;;;;;;4953411;29;20493;-62
2021/04/22 12:31:33;;;;;;;11.03;4.90;;;15.80;55.30;;;;;;4953500;29;20468;-62
2021/04/22 12:34:20;;;;;;;7.70;4.13;;;15.80;54.90;;;;;;4956095;28;20521;-62
2021/04/22 12:36:58;;;;;;;9.50;4.00;;;15.90;55.50;;;;;;4956938;29;20544;-63
2021/04/22 12:39:25;;;;;;;11.23;4.90;;;16.10;56.10;;;;;;4957158;29;20433;-63
2021/04/22 12:42:10;;;;;;;9.10;4.53;;;16.30;55.90;;;;;;4956888;29;20466;-62
2021/04/22 12:44:36;;;;;;;7.50;5.00;;;16.40;55.50;;;;;;4957507;29;20437;-63
2021/04/22 12:47:04;;;;;;;12.83;5.10;;;16.60;54.80;;;;;;4956873;29;20420;-62
2021/04/22 12:49:31;;;;;;;17.70;4.70;;;16.60;54.30;;;;;;4951286;29;20976;-62
2021/04/22 12:51:56;;;;;;;9.00;4.80;;;16.50;51.40;;;;;;4952739;29;20944;-62
2021/04/22 12:54:24;;;;;;;11.53;4.30;;;16.60;52.20;;;;;;4946321;29;20435;-62
2021/04/22 12:56:50;;;;;;;11.60;4.80;;;16.80;52.30;;;;;;4946270;29;20222;-62
2021/04/22 12:59:16;;;;;;;7.37;3.67;;;16.90;53.20;;;;;;4946120;28;20449;-62
2021/04/22 13:01:41;;;;;;;13.43;5.63;;;16.90;53.60;;;;;;4956686;28;20461;-63
2021/04/22 13:04:12;;;;;;;13.80;4.80;;;16.90;54.10;;;;;;4956566;29;20226;-64
2021/04/22 13:06:45;;;;;;;15.80;8.50;;;17.00;51.30;;;;;;4954335;29;20665;-63
2021/04/22 13:09:13;;;;;;;8.10;4.73;;;16.90;52.70;;;;;;4948809;29;20798;-63
2021/04/22 13:11:39;;;;;;;13.83;4.80;;;17.10;52.10;;;;;;4956562;29;20433;-63
2021/04/22 13:14:11;;;;;;;10.20;5.73;;;17.20;52.60;;;;;;4954485;29;20513;-63
2021/04/22 13:16:49;;;;;;;11.40;5.23;;;17.20;50.90;;;;;;4955245;28;20821;-62
2021/04/22 13:19:19;;;;;;;9.10;5.67;;;16.90;50.60;;;;;;4975843;28;20475;-63
2021/04/22 13:21:57;;;;;;;13.57;4.53;;;17.00;51.10;;;;;;4963321;28;20940;-63
2021/04/22 13:24:27;;;;;;;7.50;4.60;;;17.20;53.60;;;;;;4950180;29;20526;-63
2021/04/22 13:27:01;;;;;;;9.83;4.60;;;17.30;52.60;;;;;;4945474;29;20425;-63
2021/04/22 13:29:30;;;;;;;13.30;5.50;;;17.40;50.60;;;;;;4951464;29;20476;-63
2021/04/22 13:32:09;;;;;;;8.03;5.10;;;17.20;50.50;;;;;;4950094;29;20418;-63
2021/04/22 13:34:55;;;;;;;9.70;4.67;;;17.20;51.90;;;;;;4948025;29;20791;-63
2021/04/22 13:37:22;;;;;;;7.67;4.80;;;17.10;50.70;;;;;;4940902;29;20473;-63
2021/04/22 13:39:50;;;;;;;11.67;5.67;;;17.30;50.60;;;;;;4952496;29;20440;-64
2021/04/22 13:42:25;;;;;;;10.83;4.53;;;17.40;50.60;;;;;;4947685;29;20567;-63
2021/04/22 13:44:52;;;;;;;14.80;6.47;;;17.40;50.40;;;;;;4946311;28;20808;-63
2021/04/22 13:47:19;;;;;;;10.73;5.90;;;17.40;50.40;;;;;;4937028;29;20575;-63
2021/04/22 13:49:47;;;;;;;7.70;3.77;;;17.40;51.30;;;;;;4936297;29;20445;-63
2021/04/22 13:52:14;;;;;;;14.67;4.80;;;17.60;50.90;;;;;;4936910;29;20529;-63
2021/04/22 13:54:42;;;;;;;16.60;5.30;;;17.20;48.90;;;;;;4936748;29;20794;-63
2021/04/22 13:57:15;;;;;;;5.20;4.33;;;17.30;51.20;;;;;;4936546;29;20505;-63
2021/04/22 13:59:42;;;;;;;14.07;5.87;;;17.30;52.10;;;;;;4936624;29;20514;-63
2021/04/22 14:02:09;;;;;;;11.83;5.40;;;17.30;48.90;;;;;;4950112;29;20441;-63
2021/04/22 14:04:35;;;;;;;10.80;5.13;;;17.50;50.50;;;;;;4954942;29;20560;-63
2021/04/22 14:07:01;;;;;;;8.33;4.77;;;17.60;50.10;;;;;;4955091;29;20461;-63
2021/04/22 14:09:29;;;;;;;6.80;5.00;;;17.70;51.30;;;;;;4955372;29;20257;-63
2021/04/22 14:11:56;;;;;;;7.80;4.63;;;17.90;49.40;;;;;;4955424;29;20438;-62
2021/04/22 14:14:24;;;;;;;7.87;5.23;;;17.90;50.50;;;;;;4955657;29;20426;-63